Wetterdaten: Woche 13.02.17 - 19.02.17 (KW7)
Datum Zeit Temperatur Luftfeuchte Luftdruck Niederschlag Windrichtung Sonnenschein Solar Wind
13.02.2017 00:00 -0,7 C 96 % 1027,1 hPa 0,0 l/m O-NO 0,00 h 0 W/m 16,4 km/h (3 Bft)
13.02.2017 01:00 -0,8 C 96 % 1027,3 hPa 0,0 l/m O-NO 0,00 h 0 W/m 17,0 km/h (3 Bft)
13.02.2017 02:00 -1,1 C 96 % 1027,3 hPa 0,0 l/m O-NO 0,00 h 0 W/m 18,8 km/h (3 Bft)
13.02.2017 03:00 -1,2 C 96 % 1027,1 hPa 0,0 l/m NO 0,00 h 0 W/m 18,5 km/h (3 Bft)
13.02.2017 04:00 -1,2 C 96 % 1027,0 hPa 0,0 l/m O-NO 0,00 h 0 W/m 15,4 km/h (3 Bft)
13.02.2017 05:00 -1,3 C 97 % 1027,1 hPa 0,0 l/m O-NO 0,00 h 0 W/m 18,4 km/h (3 Bft)
13.02.2017 06:00 -1,3 C 97 % 1027,0 hPa 0,0 l/m O 0,00 h 0 W/m 15,7 km/h (3 Bft)
13.02.2017 07:00 -1,4 C 97 % 1027,0 hPa 0,0 l/m O 0,00 h 5 W/m 20,8 km/h (4 Bft)
13.02.2017 08:00 -1,3 C 97 % 1027,2 hPa 0,0 l/m O 0,00 h 16 W/m 20,1 km/h (4 Bft)
13.02.2017 09:00 -1,3 C 97 % 1027,1 hPa 0,0 l/m O-NO 0,00 h 37 W/m 20,0 km/h (4 Bft)
13.02.2017 10:00 -1,1 C 97 % 1027,0 hPa 0,0 l/m O 0,00 h 61 W/m 22,4 km/h (4 Bft)
13.02.2017 11:00 -0,7 C 96 % 1026,9 hPa 0,0 l/m O-NO 0,00 h 76 W/m 18,4 km/h (3 Bft)
13.02.2017 12:00 -0,4 C 95 % 1026,5 hPa 0,0 l/m O-NO 0,00 h 90 W/m 21,8 km/h (4 Bft)
13.02.2017 13:00 -0,2 C 93 % 1026,2 hPa 0,0 l/m O-NO 0,00 h 80 W/m 21,3 km/h (4 Bft)
13.02.2017 14:00 0,1 C 92 % 1025,8 hPa 0,0 l/m O 0,00 h 77 W/m 20,1 km/h (4 Bft)
13.02.2017 15:00 0,2 C 91 % 1025,7 hPa 0,0 l/m O 0,00 h 53 W/m 20,4 km/h (4 Bft)
13.02.2017 16:00 0,0 C 91 % 1025,5 hPa 0,0 l/m O 0,00 h 27 W/m 20,4 km/h (4 Bft)
13.02.2017 17:00 -0,1 C 90 % 1025,2 hPa 0,0 l/m O-NO 0,00 h 9 W/m 18,8 km/h (3 Bft)
13.02.2017 18:00 -0,2 C 90 % 1025,0 hPa 0,0 l/m O 0,00 h 0 W/m 13,8 km/h (3 Bft)
13.02.2017 19:00 -0,5 C 90 % 1025,2 hPa 0,0 l/m O-NO 0,00 h 0 W/m 9,9 km/h (2 Bft)
13.02.2017 20:00 -1,1 C 91 % 1025,1 hPa 0,0 l/m O-NO 0,00 h 0 W/m 9,1 km/h (2 Bft)
13.02.2017 21:00 -1,5 C 92 % 1025,1 hPa 0,0 l/m N-NO 0,00 h 0 W/m 7,4 km/h (2 Bft)
13.02.2017 22:00 -1,8 C 93 % 1024,9 hPa 0,0 l/m N-NO 0,00 h 0 W/m 5,6 km/h (1 Bft)
13.02.2017 23:00 -2,2 C 93 % 1025,0 hPa 0,0 l/m N-NO 0,00 h 0 W/m 5,5 km/h (1 Bft)
14.02.2017 00:00 -1,7 C 94 % 1025,7 hPa 0,0 l/m O-NO 0,00 h 0 W/m 8,9 km/h (2 Bft)
14.02.2017 01:00 -1,8 C 95 % 1026,0 hPa 0,0 l/m O-NO 0,00 h 0 W/m 6,7 km/h (2 Bft)
14.02.2017 02:00 -1,9 C 95 % 1026,6 hPa 0,0 l/m O-NO 0,00 h 0 W/m 2,3 km/h (1 Bft)
14.02.2017 03:00 -2,2 C 95 % 1026,8 hPa 0,0 l/m O-NO 0,00 h 0 W/m 3,1 km/h (1 Bft)
14.02.2017 04:00 -2,4 C 96 % 1027,1 hPa 0,0 l/m O-NO 0,00 h 0 W/m 2,7 km/h (1 Bft)
14.02.2017 05:00 -2,5 C 96 % 1027,5 hPa 0,0 l/m O-NO 0,00 h 0 W/m 2,7 km/h (1 Bft)
14.02.2017 06:00 -2,6 C 97 % 1027,8 hPa 0,0 l/m O-NO 0,00 h 0 W/m 3,1 km/h (1 Bft)
14.02.2017 07:00 -2,7 C 97 % 1028,5 hPa 0,0 l/m O-NO 0,00 h 8 W/m 2,8 km/h (1 Bft)
14.02.2017 08:00 -2,7 C 97 % 1029,3 hPa 0,0 l/m O-NO 0,00 h 33 W/m 4,8 km/h (1 Bft)
14.02.2017 09:00 -2,5 C 97 % 1029,7 hPa 0,0 l/m O-NO 0,00 h 88 W/m 0,5 km/h (0 Bft)
14.02.2017 10:00 -2,0 C 98 % 1030,3 hPa 0,0 l/m O-NO 0,00 h 159 W/m 3,3 km/h (1 Bft)
14.02.2017 11:00 -1,0 C 97 % 1030,6 hPa 0,0 l/m O-NO 0,17 h 235 W/m 5,3 km/h (1 Bft)
14.02.2017 12:00 0,2 C 95 % 1030,5 hPa 0,0 l/m O-NO 0,75 h 341 W/m 4,9 km/h (1 Bft)
14.02.2017 13:00 2,7 C 89 % 1030,3 hPa 0,0 l/m NO 1,00 h 437 W/m 5,9 km/h (2 Bft)
14.02.2017 14:00 5,0 C 82 % 1030,2 hPa 0,0 l/m NO 1,00 h 361 W/m 5,5 km/h (1 Bft)
14.02.2017 15:00 6,0 C 78 % 1030,3 hPa 0,0 l/m NO 1,00 h 233 W/m 6,1 km/h (2 Bft)
14.02.2017 16:00 5,0 C 79 % 1030,7 hPa 0,0 l/m N-NO 0,25 h 80 W/m 7,8 km/h (2 Bft)
14.02.2017 17:00 2,9 C 85 % 1031,3 hPa 0,0 l/m N-NO 0,08 h 16 W/m 1,7 km/h (1 Bft)
14.02.2017 18:00 1,5 C 86 % 1032,1 hPa 0,0 l/m N 0,00 h 0 W/m 1,5 km/h (1 Bft)
14.02.2017 19:00 0,2 C 89 % 1032,4 hPa 0,0 l/m N 0,00 h 0 W/m 0,5 km/h (0 Bft)
14.02.2017 20:00 -0,5 C 91 % 1032,4 hPa 0,0 l/m N-NO 0,00 h 0 W/m 1,6 km/h (1 Bft)
14.02.2017 21:00 -0,8 C 92 % 1032,7 hPa 0,0 l/m N-NO 0,00 h 0 W/m 3,5 km/h (1 Bft)
14.02.2017 22:00 -1,4 C 93 % 1033,0 hPa 0,0 l/m N 0,00 h 0 W/m 0,0 km/h (0 Bft)
14.02.2017 23:00 -2,0 C 93 % 1033,0 hPa 0,0 l/m N 0,00 h 0 W/m 0,0 km/h (0 Bft)
15.02.2017 00:00 -2,7 C 93 % 1033,5 hPa 0,0 l/m N 0,00 h 0 W/m 0,0 km/h (0 Bft)
15.02.2017 01:00 -3,1 C 94 % 1033,9 hPa 0,0 l/m N 0,00 h 0 W/m 0,0 km/h (0 Bft)
15.02.2017 02:00 -3,4 C 94 % 1034,0 hPa 0,0 l/m N 0,00 h 0 W/m 0,0 km/h (0 Bft)
15.02.2017 03:00 -3,8 C 94 % 1034,1 hPa 0,0 l/m N 0,00 h 0 W/m 0,0 km/h (0 Bft)
15.02.2017 04:00 -4,3 C 94 % 1034,4 hPa 0,0 l/m N 0,00 h 0 W/m 0,0 km/h (0 Bft)
15.02.2017 05:00 -4,6 C 94 % 1034,7 hPa 0,0 l/m N 0,00 h 0 W/m 0,0 km/h (0 Bft)
15.02.2017 06:00 -4,8 C 94 % 1034,9 hPa 0,0 l/m N 0,00 h 0 W/m 0,0 km/h (0 Bft)
15.02.2017 07:00 -5,1 C 95 % 1035,3 hPa 0,0 l/m N 0,08 h 14 W/m 0,0 km/h (0 Bft)
15.02.2017 08:00 -5,0 C 95 % 1035,8 hPa 0,0 l/m N 0,00 h 56 W/m 0,0 km/h (0 Bft)
15.02.2017 09:00 -3,1 C 97 % 1036,1 hPa 0,0 l/m N 0,00 h 127 W/m 0,0 km/h (0 Bft)
15.02.2017 10:00 -1,6 C 98 % 1036,1 hPa 0,0 l/m N 0,58 h 229 W/m 0,8 km/h (0 Bft)
15.02.2017 11:00 2,0 C 99 % 1035,9 hPa 0,0 l/m W-SW 1,00 h 432 W/m 3,1 km/h (1 Bft)
15.02.2017 12:00 6,8 C 84 % 1035,3 hPa 0,0 l/m S-SW 1,00 h 467 W/m 10,4 km/h (2 Bft)
15.02.2017 13:00 8,8 C 72 % 1034,7 hPa 0,0 l/m S-SW 1,00 h 441 W/m 10,8 km/h (2 Bft)
15.02.2017 14:00 9,6 C 71 % 1034,4 hPa 0,0 l/m S-SW 1,00 h 365 W/m 11,2 km/h (2 Bft)
15.02.2017 15:00 9,7 C 71 % 1034,5 hPa 0,0 l/m S-SW 1,00 h 240 W/m 12,5 km/h (3 Bft)
15.02.2017 16:00 8,9 C 72 % 1034,4 hPa 0,0 l/m S-SW 0,25 h 85 W/m 7,8 km/h (2 Bft)
15.02.2017 17:00 6,6 C 78 % 1034,6 hPa 0,0 l/m N 0,00 h 15 W/m 0,1 km/h (0 Bft)
15.02.2017 18:00 4,4 C 80 % 1035,0 hPa 0,0 l/m N 0,00 h 0 W/m 0,0 km/h (0 Bft)
15.02.2017 19:00 2,3 C 84 % 1035,4 hPa 0,0 l/m N 0,00 h 0 W/m 0,0 km/h (0 Bft)
15.02.2017 20:00 1,0 C 87 % 1035,5 hPa 0,0 l/m N 0,00 h 0 W/m 0,0 km/h (0 Bft)
15.02.2017 21:00 0,0 C 88 % 1035,4 hPa 0,0 l/m N 0,00 h 0 W/m 0,0 km/h (0 Bft)
15.02.2017 22:00 -0,4 C 90 % 1035,4 hPa 0,0 l/m N 0,00 h 0 W/m 0,0 km/h (0 Bft)
15.02.2017 23:00 -0,3 C 92 % 1035,3 hPa 0,0 l/m N 0,00 h 0 W/m 0,0 km/h (0 Bft)
16.02.2017 00:00 -1,2 C 92 % 1035,3 hPa 0,0 l/m N 0,00 h 0 W/m 0,0 km/h (0 Bft)
16.02.2017 01:00 -1,8 C 93 % 1035,2 hPa 0,0 l/m N 0,00 h 0 W/m 0,0 km/h (0 Bft)
16.02.2017 02:00 -2,2 C 93 % 1035,1 hPa 0,0 l/m N 0,00 h 0 W/m 0,0 km/h (0 Bft)
16.02.2017 03:00 -2,4 C 93 % 1034,5 hPa 0,0 l/m N 0,00 h 0 W/m 0,0 km/h (0 Bft)
16.02.2017 04:00 -2,7 C 94 % 1034,4 hPa 0,0 l/m N 0,00 h 0 W/m 0,0 km/h (0 Bft)
16.02.2017 05:00 -2,8 C 94 % 1034,3 hPa 0,0 l/m N 0,00 h 0 W/m 0,0 km/h (0 Bft)
16.02.2017 06:00 -3,2 C 94 % 1034,1 hPa 0,0 l/m N 0,00 h 0 W/m 0,0 km/h (0 Bft)
16.02.2017 07:00 -3,3 C 95 % 1034,0 hPa 0,0 l/m N 0,08 h 15 W/m 0,0 km/h (0 Bft)
16.02.2017 08:00 -2,9 C 95 % 1034,1 hPa 0,0 l/m N 0,83 h 111 W/m 0,0 km/h (0 Bft)
16.02.2017 09:00 -0,4 C 96 % 1033,8 hPa 0,0 l/m N 1,00 h 247 W/m 1,2 km/h (1 Bft)
16.02.2017 10:00 4,0 C 88 % 1033,4 hPa 0,0 l/m S-SW 0,92 h 349 W/m 9,1 km/h (2 Bft)
16.02.2017 11:00 7,0 C 74 % 1032,9 hPa 0,0 l/m S-SW 1,00 h 445 W/m 11,6 km/h (2 Bft)
16.02.2017 12:00 9,6 C 66 % 1031,9 hPa 0,0 l/m S 1,00 h 470 W/m 9,1 km/h (2 Bft)
16.02.2017 13:00 11,6 C 63 % 1031,0 hPa 0,0 l/m S-SW 1,00 h 440 W/m 9,8 km/h (2 Bft)
16.02.2017 14:00 12,9 C 57 % 1030,0 hPa 0,0 l/m S-SW 1,00 h 367 W/m 10,4 km/h (2 Bft)
16.02.2017 15:00 12,8 C 57 % 1029,4 hPa 0,0 l/m SW 1,00 h 244 W/m 8,6 km/h (2 Bft)
16.02.2017 16:00 11,7 C 62 % 1029,0 hPa 0,0 l/m S-SW 0,33 h 89 W/m 8,7 km/h (2 Bft)
16.02.2017 17:00 9,1 C 71 % 1028,9 hPa 0,0 l/m S-SW 0,08 h 14 W/m 6,4 km/h (2 Bft)
16.02.2017 18:00 7,4 C 76 % 1029,0 hPa 0,0 l/m S-SW 0,00 h 0 W/m 3,1 km/h (1 Bft)
16.02.2017 19:00 5,8 C 77 % 1028,9 hPa 0,0 l/m N 0,00 h 0 W/m 0,0 km/h (0 Bft)
16.02.2017 20:00 4,0 C 81 % 1028,6 hPa 0,0 l/m N 0,00 h 0 W/m 0,0 km/h (0 Bft)
16.02.2017 21:00 2,7 C 84 % 1028,6 hPa 0,0 l/m N 0,00 h 0 W/m 0,0 km/h (0 Bft)
16.02.2017 22:00 2,0 C 88 % 1028,2 hPa 0,0 l/m N 0,00 h 0 W/m 0,0 km/h (0 Bft)
16.02.2017 23:00 2,0 C 90 % 1027,7 hPa 0,0 l/m N 0,00 h 0 W/m 0,0 km/h (0 Bft)
17.02.2017 00:00 1,8 C 90 % 1027,3 hPa 0,0 l/m N 0,00 h 0 W/m 0,0 km/h (0 Bft)
17.02.2017 01:00 2,0 C 91 % 1026,5 hPa 0,0 l/m S-SW 0,00 h 0 W/m 0,9 km/h (0 Bft)
17.02.2017 02:00 2,9 C 92 % 1026,1 hPa 0,0 l/m S-SW 0,00 h 0 W/m 5,3 km/h (1 Bft)
17.02.2017 03:00 3,8 C 90 % 1026,1 hPa 0,8 l/m S-SW 0,00 h 0 W/m 2,4 km/h (1 Bft)
17.02.2017 04:00 3,5 C 91 % 1025,6 hPa 1,4 l/m N 0,00 h 0 W/m 0,9 km/h (0 Bft)
17.02.2017 05:00 3,0 C 93 % 1025,2 hPa 0,0 l/m N 0,00 h 0 W/m 0,8 km/h (0 Bft)
17.02.2017 06:00 2,7 C 94 % 1024,9 hPa 0,0 l/m N 0,00 h 0 W/m 0,0 km/h (0 Bft)
17.02.2017 07:00 2,9 C 95 % 1025,1 hPa 1,2 l/m NO 0,00 h 6 W/m 3,5 km/h (1 Bft)
17.02.2017 08:00 3,1 C 96 % 1025,1 hPa 0,2 l/m N 0,00 h 17 W/m 0,0 km/h (0 Bft)
17.02.2017 09:00 3,4 C 96 % 1025,4 hPa 1,6 l/m N-NW 0,00 h 32 W/m 4,8 km/h (1 Bft)
17.02.2017 10:00 3,7 C 97 % 1025,6 hPa 1,0 l/m N 0,00 h 59 W/m 10,1 km/h (2 Bft)
17.02.2017 11:00 3,9 C 97 % 1025,6 hPa 0,0 l/m N 0,00 h 84 W/m 0,4 km/h (0 Bft)
17.02.2017 12:00 4,2 C 96 % 1025,5 hPa 0,2 l/m NW 0,00 h 90 W/m 4,9 km/h (1 Bft)
17.02.2017 13:00 4,2 C 96 % 1025,8 hPa 0,0 l/m W-SW 0,00 h 85 W/m 9,3 km/h (2 Bft)
17.02.2017 14:00 4,8 C 95 % 1025,6 hPa 0,0 l/m SW 0,00 h 184 W/m 12,9 km/h (3 Bft)
17.02.2017 15:00 4,6 C 95 % 1025,4 hPa 0,0 l/m SW 0,42 h 173 W/m 19,4 km/h (3 Bft)
17.02.2017 16:00 3,5 C 95 % 1025,6 hPa 0,0 l/m SW 0,00 h 34 W/m 19,2 km/h (3 Bft)
17.02.2017 17:00 3,1 C 96 % 1025,6 hPa 0,0 l/m SW 0,08 h 20 W/m 13,7 km/h (3 Bft)
17.02.2017 18:00 2,8 C 97 % 1026,0 hPa 0,0 l/m SW 0,00 h 0 W/m 12,8 km/h (3 Bft)
17.02.2017 19:00 2,7 C 97 % 1026,3 hPa 0,0 l/m SW 0,00 h 0 W/m 12,9 km/h (3 Bft)
17.02.2017 20:00 2,7 C 97 % 1026,4 hPa 0,0 l/m SW 0,00 h 0 W/m 7,2 km/h (2 Bft)
17.02.2017 21:00 2,5 C 97 % 1026,7 hPa 0,0 l/m N 0,00 h 0 W/m 0,5 km/h (0 Bft)
17.02.2017 22:00 2,6 C 97 % 1026,6 hPa 0,6 l/m SW 0,00 h 0 W/m 0,8 km/h (0 Bft)
17.02.2017 23:00 2,5 C 98 % 1026,4 hPa 0,6 l/m N 0,00 h 0 W/m 0,0 km/h (0 Bft)
18.02.2017 00:00 2,4 C 98 % 1026,4 hPa 0,4 l/m N 0,00 h 0 W/m 0,0 km/h (0 Bft)
18.02.2017 01:00 2,4 C 98 % 1026,1 hPa 0,0 l/m N 0,00 h 0 W/m 0,0 km/h (0 Bft)
18.02.2017 02:00 2,4 C 98 % 1025,9 hPa 0,0 l/m N 0,00 h 0 W/m 0,7 km/h (0 Bft)
18.02.2017 03:00 2,2 C 98 % 1026,0 hPa 0,0 l/m N 0,00 h 0 W/m 0,0 km/h (0 Bft)
18.02.2017 04:00 2,2 C 98 % 1025,9 hPa 0,0 l/m N 0,00 h 0 W/m 0,0 km/h (0 Bft)
18.02.2017 05:00 2,3 C 98 % 1026,0 hPa 0,0 l/m SW 0,00 h 0 W/m 1,6 km/h (1 Bft)
18.02.2017 06:00 2,1 C 98 % 1026,0 hPa 0,2 l/m SW 0,00 h 0 W/m 0,4 km/h (0 Bft)
18.02.2017 07:00 1,8 C 98 % 1026,4 hPa 0,0 l/m N 0,00 h 11 W/m 0,0 km/h (0 Bft)
18.02.2017 08:00 1,9 C 98 % 1026,6 hPa 0,0 l/m N 0,00 h 48 W/m 0,0 km/h (0 Bft)
18.02.2017 09:00 2,6 C 99 % 1026,8 hPa 0,0 l/m N 0,00 h 92 W/m 0,0 km/h (0 Bft)
18.02.2017 10:00 3,8 C 99 % 1026,6 hPa 0,0 l/m SW 0,67 h 335 W/m 1,5 km/h (1 Bft)
18.02.2017 11:00 5,8 C 92 % 1026,3 hPa 0,0 l/m SW 0,67 h 357 W/m 4,3 km/h (1 Bft)
18.02.2017 12:00 6,5 C 83 % 1025,7 hPa 0,0 l/m O-SO 0,83 h 513 W/m 7,3 km/h (2 Bft)
18.02.2017 13:00 8,5 C 67 % 1024,9 hPa 0,0 l/m O-SO 0,92 h 555 W/m 11,0 km/h (2 Bft)
18.02.2017 14:00 8,0 C 68 % 1024,3 hPa 0,0 l/m NO 0,33 h 283 W/m 12,1 km/h (2 Bft)
18.02.2017 15:00 7,5 C 69 % 1024,1 hPa 0,0 l/m NO 0,83 h 253 W/m 13,3 km/h (3 Bft)
18.02.2017 16:00 7,2 C 69 % 1024,0 hPa 0,0 l/m O 0,42 h 106 W/m 13,2 km/h (3 Bft)
18.02.2017 17:00 5,8 C 76 % 1024,4 hPa 0,0 l/m O-NO 0,08 h 21 W/m 7,6 km/h (2 Bft)
18.02.2017 18:00 3,8 C 83 % 1024,7 hPa 0,0 l/m N 0,00 h 0 W/m 0,4 km/h (0 Bft)
18.02.2017 19:00 2,5 C 85 % 1024,9 hPa 0,0 l/m N 0,00 h 0 W/m 0,0 km/h (0 Bft)
18.02.2017 20:00 1,4 C 87 % 1024,7 hPa 0,0 l/m N 0,00 h 0 W/m 0,0 km/h (0 Bft)
18.02.2017 21:00 0,6 C 89 % 1024,7 hPa 0,0 l/m N 0,00 h 0 W/m 0,0 km/h (0 Bft)
18.02.2017 22:00 0,1 C 91 % 1024,7 hPa 0,0 l/m N 0,00 h 0 W/m 0,5 km/h (0 Bft)
18.02.2017 23:00 -0,2 C 93 % 1024,7 hPa 0,0 l/m O-NO 0,00 h 0 W/m 1,1 km/h (0 Bft)
19.02.2017 00:00 -0,6 C 94 % 1024,7 hPa 0,0 l/m N 0,00 h 0 W/m 0,4 km/h (0 Bft)
19.02.2017 01:00 -1,0 C 94 % 1024,5 hPa 0,0 l/m O-NO 0,00 h 0 W/m 2,1 km/h (1 Bft)
19.02.2017 02:00 -1,0 C 95 % 1024,5 hPa 0,0 l/m O-NO 0,00 h 0 W/m 2,9 km/h (1 Bft)
19.02.2017 03:00 -0,9 C 96 % 1024,4 hPa 0,0 l/m N 0,00 h 0 W/m 0,0 km/h (0 Bft)
19.02.2017 04:00 -1,2 C 96 % 1024,4 hPa 0,0 l/m N 0,00 h 0 W/m 0,4 km/h (0 Bft)
19.02.2017 05:00 -1,6 C 96 % 1024,3 hPa 0,0 l/m N 0,00 h 0 W/m 0,8 km/h (0 Bft)
19.02.2017 06:00 -1,5 C 97 % 1024,1 hPa 0,0 l/m SW 0,00 h 0 W/m 4,2 km/h (1 Bft)
19.02.2017 07:00 -1,3 C 97 % 1024,3 hPa 0,0 l/m S-SW 0,00 h 13 W/m 5,2 km/h (1 Bft)
19.02.2017 08:00 -1,2 C 98 % 1024,6 hPa 0,0 l/m S-SW 0,00 h 54 W/m 0,3 km/h (0 Bft)
19.02.2017 09:00 -0,7 C 98 % 1024,7 hPa 0,0 l/m S-SW 0,00 h 105 W/m 7,4 km/h (2 Bft)
19.02.2017 10:00 -0,2 C 99 % 1024,9 hPa 0,0 l/m S-SW 0,00 h 165 W/m 4,7 km/h (1 Bft)
19.02.2017 11:00 0,6 C 99 % 1024,8 hPa 0,0 l/m S-SW 0,00 h 177 W/m 9,1 km/h (2 Bft)
19.02.2017 12:00 1,9 C 99 % 1024,3 hPa 0,0 l/m S 0,42 h 291 W/m 11,0 km/h (2 Bft)
19.02.2017 13:00 3,9 C 96 % 1023,6 hPa 0,0 l/m S-SW 0,67 h 337 W/m 9,9 km/h (2 Bft)
19.02.2017 14:00 6,4 C 84 % 1023,0 hPa 0,0 l/m W-SW 0,25 h 208 W/m 10,5 km/h (2 Bft)
19.02.2017 15:00 7,1 C 76 % 1022,6 hPa 0,0 l/m W-SW 0,50 h 183 W/m 13,0 km/h (3 Bft)
19.02.2017 16:00 6,6 C 76 % 1022,4 hPa 0,0 l/m W-SW 0,42 h 109 W/m 12,8 km/h (3 Bft)
19.02.2017 17:00 6,1 C 80 % 1022,2 hPa 0,0 l/m SW 0,00 h 20 W/m 6,8 km/h (2 Bft)
19.02.2017 18:00 5,5 C 83 % 1022,5 hPa 0,0 l/m W-SW 0,00 h 0 W/m 8,0 km/h (2 Bft)
19.02.2017 19:00 4,7 C 85 % 1022,5 hPa 0,0 l/m N 0,00 h 0 W/m 0,0 km/h (0 Bft)
19.02.2017 20:00 3,8 C 87 % 1022,6 hPa 0,0 l/m N 0,00 h 0 W/m 0,1 km/h (0 Bft)
19.02.2017 21:00 3,4 C 89 % 1023,0 hPa 0,0 l/m N 0,00 h 0 W/m 0,0 km/h (0 Bft)
19.02.2017 22:00 3,2 C 90 % 1023,5 hPa 0,0 l/m N 0,00 h 0 W/m 0,0 km/h (0 Bft)
19.02.2017 23:00 3,2 C 91 % 1023,9 hPa 0,0 l/m W-SW 0,00 h 0 W/m 3,3 km/h (1 Bft)
Min-Datum _ 15.02.17 16.02.17 19.02.17 - - - - 13.02.17
_ Min-Zeit 08:05 14:35 17:15 - - - - 21:45
Minimum _ -5,3 C 54 % 1022,0 hPa - - - - 0,0 km/h (0 Bft)
Max-Datum _ 16.02.17 15.02.17 15.02.17 17.02.17 - 14.02.17 18.02.17 13.02.17
_ Max-Zeit 14:30 11:40 10:35 09:05 - 11:45 13:10 17:00
Maximum _ 13,1 C 100 % 1036,3 hPa 1,6 l/m - 0,08 h 700 W/m 30,6 km/h
O-NO (5 Bft)
Durchschnitt _ 1,6 C 90 % 1028,3 hPa #8,2 l/m O-NO #25:55 h 166 W/m 5,6 km/h (1 Bft)